sensor_id;sensor_type;location;lat;lon;timestamp;P1;durP1;ratioP1;P2;durP2;ratioP2
29712;SDS011;16623;53.632;10.016;2023-02-24T00:01:33;9.35;;;1.60;;
29712;SDS011;16623;53.632;10.016;2023-02-24T00:04:07;10.18;;;1.25;;
29712;SDS011;16623;53.632;10.016;2023-02-24T00:06:38;12.45;;;1.90;;
29712;SDS011;16623;53.632;10.016;2023-02-24T00:11:43;11.90;;;1.80;;
29712;SDS011;16623;53.632;10.016;2023-02-24T00:14:16;8.70;;;1.63;;
29712;SDS011;16623;53.632;10.016;2023-02-24T00:16:44;14.82;;;1.75;;
29712;SDS011;16623;53.632;10.016;2023-02-24T00:19:12;10.25;;;1.67;;
29712;SDS011;16623;53.632;10.016;2023-02-24T00:21:40;12.70;;;1.42;;
29712;SDS011;16623;53.632;10.016;2023-02-24T00:24:06;10.23;;;1.58;;
29712;SDS011;16623;53.632;10.016;2023-02-24T00:26:32;9.88;;;1.58;;
29712;SDS011;16623;53.632;10.016;2023-02-24T00:28:58;6.32;;;1.17;;
29712;SDS011;16623;53.632;10.016;2023-02-24T00:31:27;6.45;;;1.88;;
29712;SDS011;16623;53.632;10.016;2023-02-24T00:33:57;8.32;;;1.88;;
29712;SDS011;16623;53.632;10.016;2023-02-24T00:36:24;12.27;;;2.30;;
29712;SDS011;16623;53.632;10.016;2023-02-24T00:38:51;7.18;;;1.70;;
29712;SDS011;16623;53.632;10.016;2023-02-24T00:41:30;4.15;;;1.60;;
29712;SDS011;16623;53.632;10.016;2023-02-24T00:44:00;18.08;;;2.20;;
29712;SDS011;16623;53.632;10.016;2023-02-24T00:46:35;6.43;;;1.45;;
29712;SDS011;16623;53.632;10.016;2023-02-24T00:49:07;13.40;;;2.47;;
29712;SDS011;16623;53.632;10.016;2023-02-24T00:51:40;12.77;;;3.38;;
29712;SDS011;16623;53.632;10.016;2023-02-24T00:54:07;7.60;;;1.33;;
29712;SDS011;16623;53.632;10.016;2023-02-24T00:56:36;6.82;;;1.85;;
29712;SDS011;16623;53.632;10.016;2023-02-24T00:59:02;10.70;;;1.75;;
29712;SDS011;16623;53.632;10.016;2023-02-24T01:01:29;6.45;;;1.55;;
29712;SDS011;16623;53.632;10.016;2023-02-24T01:03:56;16.45;;;2.05;;
29712;SDS011;16623;53.632;10.016;2023-02-24T01:06:23;8.65;;;1.40;;
29712;SDS011;16623;53.632;10.016;2023-02-24T01:08:51;11.90;;;3.63;;
29712;SDS011;16623;53.632;10.016;2023-02-24T01:11:18;10.15;;;1.42;;
29712;SDS011;16623;53.632;10.016;2023-02-24T01:14:05;14.23;;;1.80;;
29712;SDS011;16623;53.632;10.016;2023-02-24T01:16:32;11.25;;;2.55;;
29712;SDS011;16623;53.632;10.016;2023-02-24T01:18:58;18.50;;;2.10;;
29712;SDS011;16623;53.632;10.016;2023-02-24T01:21:24;16.80;;;1.65;;
29712;SDS011;16623;53.632;10.016;2023-02-24T01:23:50;8.27;;;2.13;;
29712;SDS011;16623;53.632;10.016;2023-02-24T01:26:17;11.82;;;2.67;;
29712;SDS011;16623;53.632;10.016;2023-02-24T01:28:43;10.95;;;1.77;;
29712;SDS011;16623;53.632;10.016;2023-02-24T01:31:10;8.75;;;1.70;;
29712;SDS011;16623;53.632;10.016;2023-02-24T01:33:37;15.90;;;1.83;;
29712;SDS011;16623;53.632;10.016;2023-02-24T01:38:36;6.10;;;1.35;;
29712;SDS011;16623;53.632;10.016;2023-02-24T01:41:03;17.05;;;2.45;;
29712;SDS011;16623;53.632;10.016;2023-02-24T01:43:30;13.98;;;2.20;;
29712;SDS011;16623;53.632;10.016;2023-02-24T01:45:58;9.85;;;1.77;;
29712;SDS011;16623;53.632;10.016;2023-02-24T01:48:24;8.23;;;2.05;;
29712;SDS011;16623;53.632;10.016;2023-02-24T01:50:50;11.25;;;1.77;;
29712;SDS011;16623;53.632;10.016;2023-02-24T01:53:16;6.57;;;2.30;;
29712;SDS011;16623;53.632;10.016;2023-02-24T01:55:43;13.93;;;2.22;;
29712;SDS011;16623;53.632;10.016;2023-02-24T01:58:18;15.25;;;2.08;;
29712;SDS011;16623;53.632;10.016;2023-02-24T02:00:50;14.88;;;2.47;;
29712;SDS011;16623;53.632;10.016;2023-02-24T02:03:20;15.40;;;3.25;;
29712;SDS011;16623;53.632;10.016;2023-02-24T02:05:49;21.10;;;3.88;;
29712;SDS011;16623;53.632;10.016;2023-02-24T02:08:15;7.90;;;1.88;;
29712;SDS011;16623;53.632;10.016;2023-02-24T02:10:43;13.30;;;1.55;;
29712;SDS011;16623;53.632;10.016;2023-02-24T02:13:13;10.10;;;1.60;;
29712;SDS011;16623;53.632;10.016;2023-02-24T02:15:51;11.68;;;2.08;;
29712;SDS011;16623;53.632;10.016;2023-02-24T02:18:31;15.05;;;1.90;;
29712;SDS011;16623;53.632;10.016;2023-02-24T02:21:13;12.15;;;2.13;;
29712;SDS011;16623;53.632;10.016;2023-02-24T02:23:59;14.05;;;2.17;;
29712;SDS011;16623;53.632;10.016;2023-02-24T02:26:49;14.13;;;2.65;;
29712;SDS011;16623;53.632;10.016;2023-02-24T02:37:34;8.75;;;1.77;;
29712;SDS011;16623;53.632;10.016;2023-02-24T02:43:27;18.83;;;3.22;;
29712;SDS011;16623;53.632;10.016;2023-02-24T02:46:22;7.22;;;1.75;;
29712;SDS011;16623;53.632;10.016;2023-02-24T02:48:58;11.55;;;1.70;;
29712;SDS011;16623;53.632;10.016;2023-02-24T02:51:51;11.43;;;2.58;;
29712;SDS011;16623;53.632;10.016;2023-02-24T02:54:30;9.88;;;1.88;;
29712;SDS011;16623;53.632;10.016;2023-02-24T02:57:15;10.95;;;1.80;;
29712;SDS011;16623;53.632;10.016;2023-02-24T02:59:54;8.48;;;1.60;;
29712;SDS011;16623;53.632;10.016;2023-02-24T03:02:37;10.40;;;1.75;;
29712;SDS011;16623;53.632;10.016;2023-02-24T03:05:07;17.55;;;2.17;;
29712;SDS011;16623;53.632;10.016;2023-02-24T03:07:36;9.38;;;1.45;;
29712;SDS011;16623;53.632;10.016;2023-02-24T03:10:10;7.70;;;1.70;;
29712;SDS011;16623;53.632;10.016;2023-02-24T03:12:45;11.52;;;1.77;;
29712;SDS011;16623;53.632;10.016;2023-02-24T03:15:14;11.55;;;1.73;;
29712;SDS011;16623;53.632;10.016;2023-02-24T03:17:42;15.40;;;3.15;;
29712;SDS011;16623;53.632;10.016;2023-02-24T03:20:14;11.60;;;2.20;;
29712;SDS011;16623;53.632;10.016;2023-02-24T03:22:54;9.20;;;1.65;;
29712;SDS011;16623;53.632;10.016;2023-02-24T03:25:40;12.15;;;1.65;;
29712;SDS011;16623;53.632;10.016;2023-02-24T03:28:17;10.27;;;1.40;;
29712;SDS011;16623;53.632;10.016;2023-02-24T03:31:00;6.80;;;1.75;;
29712;SDS011;16623;53.632;10.016;2023-02-24T03:33:50;8.50;;;1.88;;
29712;SDS011;16623;53.632;10.016;2023-02-24T03:36:39;10.13;;;2.00;;
29712;SDS011;16623;53.632;10.016;2023-02-24T03:39:04;7.47;;;1.85;;
29712;SDS011;16623;53.632;10.016;2023-02-24T03:41:38;7.22;;;1.50;;
29712;SDS011;16623;53.632;10.016;2023-02-24T03:44:29;12.30;;;1.63;;
29712;SDS011;16623;53.632;10.016;2023-02-24T03:46:55;16.73;;;3.35;;
29712;SDS011;16623;53.632;10.016;2023-02-24T03:49:21;5.85;;;1.50;;
29712;SDS011;16623;53.632;10.016;2023-02-24T03:51:56;7.68;;;1.92;;
29712;SDS011;16623;53.632;10.016;2023-02-24T04:00:06;21.52;;;2.03;;
29712;SDS011;16623;53.632;10.016;2023-02-24T04:02:48;8.80;;;1.98;;
29712;SDS011;16623;53.632;10.016;2023-02-24T04:10:24;5.72;;;1.58;;
29712;SDS011;16623;53.632;10.016;2023-02-24T04:16:01;7.65;;;1.85;;
29712;SDS011;16623;53.632;10.016;2023-02-24T04:19:01;9.98;;;2.38;;
29712;SDS011;16623;53.632;10.016;2023-02-24T04:21:31;10.27;;;2.10;;
29712;SDS011;16623;53.632;10.016;2023-02-24T04:23:58;12.50;;;1.90;;
29712;SDS011;16623;53.632;10.016;2023-02-24T04:26:30;12.07;;;3.05;;
29712;SDS011;16623;53.632;10.016;2023-02-24T04:28:57;7.85;;;2.33;;
29712;SDS011;16623;53.632;10.016;2023-02-24T04:31:23;13.80;;;2.03;;
29712;SDS011;16623;53.632;10.016;2023-02-24T04:33:52;7.43;;;1.15;;
29712;SDS011;16623;53.632;10.016;2023-02-24T04:36:19;10.07;;;1.77;;
29712;SDS011;16623;53.632;10.016;2023-02-24T04:38:46;10.25;;;1.73;;
29712;SDS011;16623;53.632;10.016;2023-02-24T04:41:13;11.15;;;2.17;;
29712;SDS011;16623;53.632;10.016;2023-02-24T04:43:45;11.13;;;2.55;;
29712;SDS011;16623;53.632;10.016;2023-02-24T04:46:12;10.20;;;1.73;;
29712;SDS011;16623;53.632;10.016;2023-02-24T04:48:37;9.85;;;1.75;;
29712;SDS011;16623;53.632;10.016;2023-02-24T04:51:03;8.38;;;1.55;;
29712;SDS011;16623;53.632;10.016;2023-02-24T04:53:30;4.38;;;1.63;;
29712;SDS011;16623;53.632;10.016;2023-02-24T04:55:56;6.57;;;1.60;;
29712;SDS011;16623;53.632;10.016;2023-02-24T04:58:32;11.65;;;1.77;;
29712;SDS011;16623;53.632;10.016;2023-02-24T05:00:59;10.95;;;1.65;;
29712;SDS011;16623;53.632;10.016;2023-02-24T05:03:32;6.15;;;1.70;;
29712;SDS011;16623;53.632;10.016;2023-02-24T05:05:59;4.43;;;1.58;;
29712;SDS011;16623;53.632;10.016;2023-02-24T05:08:25;6.85;;;2.08;;
29712;SDS011;16623;53.632;10.016;2023-02-24T05:10:53;8.80;;;1.55;;
29712;SDS011;16623;53.632;10.016;2023-02-24T05:13:21;4.90;;;1.90;;
29712;SDS011;16623;53.632;10.016;2023-02-24T05:15:51;12.40;;;2.17;;
29712;SDS011;16623;53.632;10.016;2023-02-24T05:18:17;8.75;;;1.70;;
29712;SDS011;16623;53.632;10.016;2023-02-24T05:20:48;12.90;;;3.03;;
29712;SDS011;16623;53.632;10.016;2023-02-24T05:23:34;12.40;;;1.92;;
29712;SDS011;16623;53.632;10.016;2023-02-24T05:26:05;17.80;;;1.83;;
29712;SDS011;16623;53.632;10.016;2023-02-24T05:28:35;10.18;;;1.83;;
29712;SDS011;16623;53.632;10.016;2023-02-24T05:31:18;6.40;;;1.30;;
29712;SDS011;16623;53.632;10.016;2023-02-24T05:33:47;6.15;;;1.52;;
29712;SDS011;16623;53.632;10.016;2023-02-24T05:36:14;15.13;;;3.08;;
29712;SDS011;16623;53.632;10.016;2023-02-24T05:38:42;9.70;;;2.33;;
29712;SDS011;16623;53.632;10.016;2023-02-24T05:41:10;12.63;;;1.60;;
29712;SDS011;16623;53.632;10.016;2023-02-24T05:43:41;9.20;;;1.77;;
29712;SDS011;16623;53.632;10.016;2023-02-24T05:46:19;13.93;;;3.38;;
29712;SDS011;16623;53.632;10.016;2023-02-24T05:48:52;16.33;;;1.67;;
29712;SDS011;16623;53.632;10.016;2023-02-24T05:51:20;8.27;;;2.05;;
29712;SDS011;16623;53.632;10.016;2023-02-24T05:53:50;6.57;;;1.35;;
29712;SDS011;16623;53.632;10.016;2023-02-24T05:56:20;11.55;;;1.85;;
29712;SDS011;16623;53.632;10.016;2023-02-24T05:58:47;1.83;;;1.25;;
29712;SDS011;16623;53.632;10.016;2023-02-24T06:01:33;12.82;;;2.75;;
29712;SDS011;16623;53.632;10.016;2023-02-24T06:04:03;11.52;;;1.88;;
29712;SDS011;16623;53.632;10.016;2023-02-24T06:06:40;3.78;;;1.50;;
29712;SDS011;16623;53.632;10.016;2023-02-24T06:09:07;15.40;;;2.20;;
29712;SDS011;16623;53.632;10.016;2023-02-24T06:11:39;13.35;;;1.65;;
29712;SDS011;16623;53.632;10.016;2023-02-24T06:14:06;7.85;;;2.00;;
29712;SDS011;16623;53.632;10.016;2023-02-24T06:16:33;9.23;;;1.90;;
29712;SDS011;16623;53.632;10.016;2023-02-24T06:19:01;7.93;;;2.72;;
29712;SDS011;16623;53.632;10.016;2023-02-24T06:21:29;12.90;;;2.22;;
29712;SDS011;16623;53.632;10.016;2023-02-24T06:23:55;7.80;;;1.83;;
29712;SDS011;16623;53.632;10.016;2023-02-24T06:26:22;10.68;;;2.03;;
29712;SDS011;16623;53.632;10.016;2023-02-24T06:28:51;9.73;;;2.40;;
29712;SDS011;16623;53.632;10.016;2023-02-24T06:31:18;11.68;;;2.55;;
29712;SDS011;16623;53.632;10.016;2023-02-24T06:33:45;11.85;;;2.45;;
29712;SDS011;16623;53.632;10.016;2023-02-24T06:36:10;10.60;;;2.45;;
29712;SDS011;16623;53.632;10.016;2023-02-24T06:38:38;13.13;;;3.05;;
29712;SDS011;16623;53.632;10.016;2023-02-24T06:41:05;7.03;;;1.80;;
29712;SDS011;16623;53.632;10.016;2023-02-24T06:43:42;6.22;;;1.85;;
29712;SDS011;16623;53.632;10.016;2023-02-24T06:46:12;10.75;;;2.40;;
29712;SDS011;16623;53.632;10.016;2023-02-24T06:48:39;9.48;;;3.13;;
29712;SDS011;16623;53.632;10.016;2023-02-24T06:51:06;12.90;;;2.22;;
29712;SDS011;16623;53.632;10.016;2023-02-24T06:53:34;7.97;;;1.75;;
29712;SDS011;16623;53.632;10.016;2023-02-24T06:56:06;12.35;;;2.05;;
29712;SDS011;16623;53.632;10.016;2023-02-24T06:58:46;9.25;;;2.38;;
29712;SDS011;16623;53.632;10.016;2023-02-24T07:01:15;6.95;;;1.80;;
29712;SDS011;16623;53.632;10.016;2023-02-24T07:03:49;8.13;;;2.05;;
29712;SDS011;16623;53.632;10.016;2023-02-24T07:06:35;6.55;;;2.15;;
29712;SDS011;16623;53.632;10.016;2023-02-24T07:09:07;11.13;;;4.53;;
29712;SDS011;16623;53.632;10.016;2023-02-24T07:11:35;11.13;;;2.65;;
29712;SDS011;16623;53.632;10.016;2023-02-24T07:14:01;10.60;;;1.73;;
29712;SDS011;16623;53.632;10.016;2023-02-24T07:16:29;12.52;;;2.25;;
29712;SDS011;16623;53.632;10.016;2023-02-24T07:18:59;9.45;;;2.00;;
29712;SDS011;16623;53.632;10.016;2023-02-24T07:21:29;6.47;;;2.05;;
29712;SDS011;16623;53.632;10.016;2023-02-24T07:26:29;8.73;;;2.55;;
29712;SDS011;16623;53.632;10.016;2023-02-24T07:28:54;8.57;;;2.20;;
29712;SDS011;16623;53.632;10.016;2023-02-24T07:31:21;11.98;;;2.78;;
29712;SDS011;16623;53.632;10.016;2023-02-24T07:33:48;7.65;;;2.15;;
29712;SDS011;16623;53.632;10.016;2023-02-24T07:36:17;10.02;;;2.25;;
29712;SDS011;16623;53.632;10.016;2023-02-24T07:38:47;11.45;;;2.50;;
29712;SDS011;16623;53.632;10.016;2023-02-24T07:41:16;10.23;;;2.72;;
29712;SDS011;16623;53.632;10.016;2023-02-24T07:43:46;4.40;;;1.85;;
29712;SDS011;16623;53.632;10.016;2023-02-24T07:46:16;6.40;;;2.17;;
29712;SDS011;16623;53.632;10.016;2023-02-24T07:48:44;11.02;;;3.05;;
29712;SDS011;16623;53.632;10.016;2023-02-24T07:51:12;8.15;;;2.15;;
29712;SDS011;16623;53.632;10.016;2023-02-24T07:53:39;7.03;;;2.20;;
29712;SDS011;16623;53.632;10.016;2023-02-24T07:58:41;8.50;;;2.10;;
29712;SDS011;16623;53.632;10.016;2023-02-24T08:01:11;6.35;;;2.22;;
29712;SDS011;16623;53.632;10.016;2023-02-24T08:03:47;7.38;;;2.35;;
29712;SDS011;16623;53.632;10.016;2023-02-24T08:06:16;5.97;;;2.25;;
29712;SDS011;16623;53.632;10.016;2023-02-24T08:08:51;8.05;;;3.13;;
29712;SDS011;16623;53.632;10.016;2023-02-24T08:11:40;6.53;;;2.40;;
29712;SDS011;16623;53.632;10.016;2023-02-24T08:14:11;10.02;;;2.55;;
29712;SDS011;16623;53.632;10.016;2023-02-24T08:16:41;13.65;;;4.70;;
29712;SDS011;16623;53.632;10.016;2023-02-24T08:19:08;8.50;;;2.65;;
29712;SDS011;16623;53.632;10.016;2023-02-24T08:21:39;6.60;;;2.30;;
29712;SDS011;16623;53.632;10.016;2023-02-24T08:24:12;2.35;;;1.65;;
29712;SDS011;16623;53.632;10.016;2023-02-24T08:26:52;5.53;;;1.58;;
29712;SDS011;16623;53.632;10.016;2023-02-24T08:29:30;5.50;;;2.53;;
29712;SDS011;16623;53.632;10.016;2023-02-24T08:34:29;7.40;;;2.50;;
29712;SDS011;16623;53.632;10.016;2023-02-24T08:36:56;5.43;;;2.13;;
29712;SDS011;16623;53.632;10.016;2023-02-24T08:39:22;7.82;;;2.40;;
29712;SDS011;16623;53.632;10.016;2023-02-24T08:41:48;6.60;;;3.50;;
29712;SDS011;16623;53.632;10.016;2023-02-24T08:44:19;4.25;;;2.33;;
29712;SDS011;16623;53.632;10.016;2023-02-24T08:46:45;6.65;;;1.88;;
29712;SDS011;16623;53.632;10.016;2023-02-24T08:49:15;8.02;;;2.00;;
29712;SDS011;16623;53.632;10.016;2023-02-24T08:51:46;3.67;;;2.20;;
29712;SDS011;16623;53.632;10.016;2023-02-24T08:54:15;3.30;;;1.80;;
29712;SDS011;16623;53.632;10.016;2023-02-24T08:56:43;7.63;;;2.78;;
29712;SDS011;16623;53.632;10.016;2023-02-24T08:59:13;4.65;;;2.45;;
29712;SDS011;16623;53.632;10.016;2023-02-24T09:01:59;7.93;;;3.75;;
29712;SDS011;16623;53.632;10.016;2023-02-24T09:04:49;7.75;;;3.90;;
29712;SDS011;16623;53.632;10.016;2023-02-24T09:07:35;8.93;;;5.20;;
29712;SDS011;16623;53.632;10.016;2023-02-24T09:12:41;10.23;;;5.20;;
29712;SDS011;16623;53.632;10.016;2023-02-24T09:15:08;9.27;;;5.97;;
29712;SDS011;16623;53.632;10.016;2023-02-24T09:17:34;14.07;;;6.15;;
29712;SDS011;16623;53.632;10.016;2023-02-24T09:20:26;8.48;;;5.22;;
29712;SDS011;16623;53.632;10.016;2023-02-24T09:22:52;9.05;;;5.07;;
29712;SDS011;16623;53.632;10.016;2023-02-24T09:25:28;10.57;;;5.78;;
29712;SDS011;16623;53.632;10.016;2023-02-24T09:30:48;6.95;;;4.53;;
29712;SDS011;16623;53.632;10.016;2023-02-24T09:33:30;7.53;;;4.55;;
29712;SDS011;16623;53.632;10.016;2023-02-24T09:36:10;7.57;;;4.45;;
29712;SDS011;16623;53.632;10.016;2023-02-24T09:38:38;7.65;;;3.80;;
29712;SDS011;16623;53.632;10.016;2023-02-24T09:44:17;3.80;;;3.28;;
29712;SDS011;16623;53.632;10.016;2023-02-24T09:46:50;10.82;;;4.53;;
29712;SDS011;16623;53.632;10.016;2023-02-24T09:49:23;5.55;;;3.45;;
29712;SDS011;16623;53.632;10.016;2023-02-24T09:52:06;7.30;;;3.95;;
29712;SDS011;16623;53.632;10.016;2023-02-24T09:54:49;5.53;;;3.90;;
29712;SDS011;16623;53.632;10.016;2023-02-24T09:57:41;5.70;;;3.60;;
29712;SDS011;16623;53.632;10.016;2023-02-24T10:00:36;9.52;;;4.07;;
29712;SDS011;16623;53.632;10.016;2023-02-24T10:06:11;8.57;;;3.03;;
29712;SDS011;16623;53.632;10.016;2023-02-24T10:08:39;4.07;;;2.78;;
29712;SDS011;16623;53.632;10.016;2023-02-24T10:11:08;4.45;;;3.00;;
29712;SDS011;16623;53.632;10.016;2023-02-24T10:13:37;11.02;;;3.15;;
29712;SDS011;16623;53.632;10.016;2023-02-24T10:16:18;4.43;;;2.80;;
29712;SDS011;16623;53.632;10.016;2023-02-24T10:18:50;6.40;;;2.78;;
29712;SDS011;16623;53.632;10.016;2023-02-24T10:21:59;4.57;;;2.20;;
29712;SDS011;16623;53.632;10.016;2023-02-24T10:24:40;5.82;;;3.03;;
29712;SDS011;16623;53.632;10.016;2023-02-24T10:27:16;5.55;;;3.28;;
29712;SDS011;16623;53.632;10.016;2023-02-24T10:32:38;6.72;;;2.88;;
29712;SDS011;16623;53.632;10.016;2023-02-24T10:35:20;5.72;;;2.50;;
29712;SDS011;16623;53.632;10.016;2023-02-24T10:37:49;4.45;;;2.72;;
29712;SDS011;16623;53.632;10.016;2023-02-24T10:40:17;4.22;;;2.97;;
29712;SDS011;16623;53.632;10.016;2023-02-24T10:43:04;8.23;;;2.75;;
29712;SDS011;16623;53.632;10.016;2023-02-24T10:45:36;4.32;;;3.38;;
29712;SDS011;16623;53.632;10.016;2023-02-24T10:50:41;3.92;;;2.72;;
29712;SDS011;16623;53.632;10.016;2023-02-24T10:53:12;7.38;;;2.00;;
29712;SDS011;16623;53.632;10.016;2023-02-24T10:55:50;8.90;;;2.97;;
29712;SDS011;16623;53.632;10.016;2023-02-24T10:58:21;5.05;;;2.90;;
29712;SDS011;16623;53.632;10.016;2023-02-24T11:01:16;4.55;;;2.47;;
29712;SDS011;16623;53.632;10.016;2023-02-24T11:03:52;5.78;;;3.40;;
29712;SDS011;16623;53.632;10.016;2023-02-24T11:06:26;8.87;;;3.37;;
29712;SDS011;16623;53.632;10.016;2023-02-24T11:09:17;7.20;;;3.50;;
29712;SDS011;16623;53.632;10.016;2023-02-24T11:11:51;5.25;;;3.58;;
29712;SDS011;16623;53.632;10.016;2023-02-24T11:18:03;8.25;;;3.88;;
29712;SDS011;16623;53.632;10.016;2023-02-24T11:20:41;6.32;;;3.75;;
29712;SDS011;16623;53.632;10.016;2023-02-24T11:23:15;7.22;;;4.20;;
29712;SDS011;16623;53.632;10.016;2023-02-24T11:25:48;6.78;;;4.32;;
29712;SDS011;16623;53.632;10.016;2023-02-24T11:37:02;15.38;;;4.60;;
29712;SDS011;16623;53.632;10.016;2023-02-24T11:42:35;5.63;;;3.58;;
29712;SDS011;16623;53.632;10.016;2023-02-24T11:45:27;15.18;;;4.45;;
29712;SDS011;16623;53.632;10.016;2023-02-24T11:48:12;14.30;;;4.25;;
29712;SDS011;16623;53.632;10.016;2023-02-24T11:50:45;9.63;;;3.88;;
29712;SDS011;16623;53.632;10.016;2023-02-24T11:53:44;6.45;;;3.85;;
29712;SDS011;16623;53.632;10.016;2023-02-24T11:56:27;12.30;;;5.07;;
29712;SDS011;16623;53.632;10.016;2023-02-24T11:59:00;9.95;;;4.63;;
29712;SDS011;16623;53.632;10.016;2023-02-24T12:01:38;6.40;;;3.42;;
29712;SDS011;16623;53.632;10.016;2023-02-24T12:09:54;11.65;;;5.63;;
29712;SDS011;16623;53.632;10.016;2023-02-24T12:12:40;12.77;;;6.25;;
29712;SDS011;16623;53.632;10.016;2023-02-24T12:15:16;17.95;;;7.82;;
29712;SDS011;16623;53.632;10.016;2023-02-24T12:17:54;9.52;;;4.20;;
29712;SDS011;16623;53.632;10.016;2023-02-24T12:20:30;8.48;;;5.32;;
29712;SDS011;16623;53.632;10.016;2023-02-24T12:25:52;8.80;;;5.80;;
29712;SDS011;16623;53.632;10.016;2023-02-24T12:28:30;9.18;;;6.03;;
29712;SDS011;16623;53.632;10.016;2023-02-24T12:36:56;15.27;;;6.22;;
29712;SDS011;16623;53.632;10.016;2023-02-24T12:39:59;11.48;;;4.78;;
29712;SDS011;16623;53.632;10.016;2023-02-24T12:48:08;7.65;;;4.78;;
29712;SDS011;16623;53.632;10.016;2023-02-24T12:58:50;18.17;;;6.82;;
29712;SDS011;16623;53.632;10.016;2023-02-24T13:01:21;10.18;;;5.40;;
29712;SDS011;16623;53.632;10.016;2023-02-24T13:09:32;16.60;;;5.07;;
29712;SDS011;16623;53.632;10.016;2023-02-24T13:15:25;16.35;;;5.53;;
29712;SDS011;16623;53.632;10.016;2023-02-24T13:17:55;13.90;;;6.20;;
29712;SDS011;16623;53.632;10.016;2023-02-24T13:20:34;20.08;;;7.05;;
29712;SDS011;16623;53.632;10.016;2023-02-24T13:23:02;12.88;;;5.45;;
29712;SDS011;16623;53.632;10.016;2023-02-24T13:25:40;22.42;;;6.13;;
29712;SDS011;16623;53.632;10.016;2023-02-24T13:28:26;23.27;;;5.50;;
29712;SDS011;16623;53.632;10.016;2023-02-24T13:31:02;12.40;;;4.60;;
29712;SDS011;16623;53.632;10.016;2023-02-24T13:33:39;21.25;;;5.68;;
29712;SDS011;16623;53.632;10.016;2023-02-24T13:38:43;14.23;;;4.78;;
29712;SDS011;16623;53.632;10.016;2023-02-24T13:43:59;14.95;;;4.05;;
29712;SDS011;16623;53.632;10.016;2023-02-24T13:46:27;14.30;;;3.88;;
29712;SDS011;16623;53.632;10.016;2023-02-24T13:49:17;17.58;;;4.63;;
29712;SDS011;16623;53.632;10.016;2023-02-24T13:51:54;14.80;;;3.45;;
29712;SDS011;16623;53.632;10.016;2023-02-24T13:55:04;14.60;;;2.97;;
29712;SDS011;16623;53.632;10.016;2023-02-24T13:57:36;13.25;;;2.58;;
29712;SDS011;16623;53.632;10.016;2023-02-24T14:02:53;23.67;;;3.63;;
29712;SDS011;16623;53.632;10.016;2023-02-24T14:05:25;15.65;;;3.03;;
29712;SDS011;16623;53.632;10.016;2023-02-24T14:07:52;22.38;;;3.10;;
29712;SDS011;16623;53.632;10.016;2023-02-24T14:10:20;26.10;;;6.55;;
29712;SDS011;16623;53.632;10.016;2023-02-24T14:13:00;27.40;;;3.38;;
29712;SDS011;16623;53.632;10.016;2023-02-24T14:15:46;11.00;;;2.75;;
29712;SDS011;16623;53.632;10.016;2023-02-24T14:18:30;22.83;;;3.33;;
29712;SDS011;16623;53.632;10.016;2023-02-24T14:20:56;22.52;;;2.90;;
29712;SDS011;16623;53.632;10.016;2023-02-24T14:23:26;25.10;;;3.78;;
29712;SDS011;16623;53.632;10.016;2023-02-24T14:25:53;19.52;;;5.30;;
29712;SDS011;16623;53.632;10.016;2023-02-24T14:28:37;13.35;;;2.78;;
29712;SDS011;16623;53.632;10.016;2023-02-24T14:31:08;10.95;;;2.38;;
29712;SDS011;16623;53.632;10.016;2023-02-24T14:33:36;26.88;;;3.60;;
29712;SDS011;16623;53.632;10.016;2023-02-24T14:36:06;11.82;;;3.05;;
29712;SDS011;16623;53.632;10.016;2023-02-24T14:38:40;11.60;;;2.28;;
29712;SDS011;16623;53.632;10.016;2023-02-24T14:41:24;19.45;;;4.30;;
29712;SDS011;16623;53.632;10.016;2023-02-24T14:43:52;12.80;;;3.22;;
29712;SDS011;16623;53.632;10.016;2023-02-24T14:46:20;27.95;;;3.95;;
29712;SDS011;16623;53.632;10.016;2023-02-24T14:48:50;16.52;;;2.50;;
29712;SDS011;16623;53.632;10.016;2023-02-24T14:51:22;15.75;;;3.08;;
29712;SDS011;16623;53.632;10.016;2023-02-24T14:53:58;16.20;;;2.78;;
29712;SDS011;16623;53.632;10.016;2023-02-24T14:56:28;13.93;;;3.80;;
29712;SDS011;16623;53.632;10.016;2023-02-24T14:59:18;15.63;;;2.53;;
29712;SDS011;16623;53.632;10.016;2023-02-24T15:01:46;17.83;;;4.50;;
29712;SDS011;16623;53.632;10.016;2023-02-24T15:07:00;7.72;;;2.30;;
29712;SDS011;16623;53.632;10.016;2023-02-24T15:09:39;11.02;;;2.50;;
29712;SDS011;16623;53.632;10.016;2023-02-24T15:12:07;14.07;;;1.77;;
29712;SDS011;16623;53.632;10.016;2023-02-24T15:14:46;15.98;;;2.30;;
29712;SDS011;16623;53.632;10.016;2023-02-24T15:17:18;11.63;;;2.17;;
29712;SDS011;16623;53.632;10.016;2023-02-24T15:19:46;15.18;;;2.25;;
29712;SDS011;16623;53.632;10.016;2023-02-24T15:25:45;11.60;;;1.98;;
29712;SDS011;16623;53.632;10.016;2023-02-24T15:30:33;13.15;;;2.33;;
29712;SDS011;16623;53.632;10.016;2023-02-24T15:33:00;8.38;;;2.05;;
29712;SDS011;16623;53.632;10.016;2023-02-24T15:35:31;9.15;;;1.40;;
29712;SDS011;16623;53.632;10.016;2023-02-24T15:37:59;8.88;;;2.20;;
29712;SDS011;16623;53.632;10.016;2023-02-24T15:40:26;19.35;;;2.53;;
29712;SDS011;16623;53.632;10.016;2023-02-24T15:43:06;14.05;;;2.55;;
29712;SDS011;16623;53.632;10.016;2023-02-24T15:45:35;18.13;;;3.05;;
29712;SDS011;16623;53.632;10.016;2023-02-24T15:48:03;16.17;;;5.22;;
29712;SDS011;16623;53.632;10.016;2023-02-24T15:50:46;9.93;;;1.92;;
29712;SDS011;16623;53.632;10.016;2023-02-24T15:53:14;15.68;;;2.80;;
29712;SDS011;16623;53.632;10.016;2023-02-24T15:55:40;16.90;;;2.55;;
29712;SDS011;16623;53.632;10.016;2023-02-24T15:58:17;15.52;;;2.25;;
29712;SDS011;16623;53.632;10.016;2023-02-24T16:00:45;11.75;;;2.72;;
29712;SDS011;16623;53.632;10.016;2023-02-24T16:03:16;23.00;;;2.95;;
29712;SDS011;16623;53.632;10.016;2023-02-24T16:05:41;14.00;;;2.25;;
29712;SDS011;16623;53.632;10.016;2023-02-24T16:08:15;16.13;;;4.93;;
29712;SDS011;16623;53.632;10.016;2023-02-24T16:10:42;14.27;;;2.10;;
29712;SDS011;16623;53.632;10.016;2023-02-24T16:13:14;11.93;;;2.17;;
29712;SDS011;16623;53.632;10.016;2023-02-24T16:15:47;11.50;;;2.22;;
29712;SDS011;16623;53.632;10.016;2023-02-24T16:18:16;14.85;;;2.20;;
29712;SDS011;16623;53.632;10.016;2023-02-24T16:20:44;13.40;;;3.45;;
29712;SDS011;16623;53.632;10.016;2023-02-24T16:23:24;15.35;;;3.25;;
29712;SDS011;16623;53.632;10.016;2023-02-24T16:25:52;13.32;;;3.63;;
29712;SDS011;16623;53.632;10.016;2023-02-24T16:28:22;17.23;;;2.75;;
29712;SDS011;16623;53.632;10.016;2023-02-24T16:30:50;15.05;;;2.50;;
29712;SDS011;16623;53.632;10.016;2023-02-24T16:33:18;20.55;;;3.10;;
29712;SDS011;16623;53.632;10.016;2023-02-24T16:35:48;11.45;;;2.90;;
29712;SDS011;16623;53.632;10.016;2023-02-24T16:38:17;17.15;;;2.65;;
29712;SDS011;16623;53.632;10.016;2023-02-24T16:40:45;15.52;;;2.92;;
29712;SDS011;16623;53.632;10.016;2023-02-24T16:43:14;9.10;;;2.20;;
29712;SDS011;16623;53.632;10.016;2023-02-24T16:45:41;14.23;;;3.88;;
29712;SDS011;16623;53.632;10.016;2023-02-24T16:48:15;9.77;;;2.88;;
29712;SDS011;16623;53.632;10.016;2023-02-24T16:50:44;18.50;;;1.85;;
29712;SDS011;16623;53.632;10.016;2023-02-24T16:53:15;18.42;;;2.95;;
29712;SDS011;16623;53.632;10.016;2023-02-24T16:55:42;18.02;;;3.88;;
29712;SDS011;16623;53.632;10.016;2023-02-24T16:58:09;17.80;;;2.97;;
29712;SDS011;16623;53.632;10.016;2023-02-24T17:00:39;9.50;;;2.38;;
29712;SDS011;16623;53.632;10.016;2023-02-24T17:03:10;18.40;;;3.60;;
29712;SDS011;16623;53.632;10.016;2023-02-24T17:05:57;19.58;;;3.28;;